Time;durP1;ratioP1;P1;durP2;ratioP2;P2;SDS_P1;SDS_P2;PMS_P1;PMS_P2;Temp;Humidity;BMP_temperature;BMP_pressure;BME280_temperature;BME280_humidity;BME280_pressure;Samples;Min_cycle;Max_cycle;Signal;HPM_P1;HPM_P2
2023/05/12 00:02:17;;;;;;;7.00;6.40;;;;;;;;;;5283799;28;20271;-78
2023/05/12 00:04:49;;;;;;;6.40;5.73;;;;;;;;;;5283123;28;20027;-79
2023/05/12 00:07:20;;;;;;;4.83;4.43;;;;;;;;;;5284247;28;20266;-79
2023/05/12 00:09:51;;;;;;;4.88;4.43;;;;;;;;;;5282710;28;20266;-79
2023/05/12 00:12:22;;;;;;;5.47;4.45;;;;;;;;;;5284260;28;20044;-79
2023/05/12 00:14:54;;;;;;;4.70;3.70;;;;;;;;;;5283480;28;20013;-79
2023/05/12 00:17:26;;;;;;;5.45;3.97;;;;;;;;;;5283298;28;20032;-79
2023/05/12 00:19:57;;;;;;;3.97;3.63;;;;;;;;;;5283369;28;20020;-79
2023/05/12 00:22:29;;;;;;;3.47;2.70;;;;;;;;;;5283905;28;20094;-80
2023/05/12 00:25:00;;;;;;;4.93;3.20;;;;;;;;;;5283006;28;20255;-79
2023/05/12 00:27:31;;;;;;;5.10;3.80;;;;;;;;;;5283619;28;20020;-79
2023/05/12 00:30:03;;;;;;;3.80;3.42;;;;;;;;;;5283505;28;20262;-79
2023/05/12 00:32:34;;;;;;;3.78;3.47;;;;;;;;;;5282602;28;20063;-79
2023/05/12 00:35:05;;;;;;;4.97;3.10;;;;;;;;;;5283323;28;20016;-79
2023/05/12 00:37:36;;;;;;;3.97;3.58;;;;;;;;;;5282366;28;20356;-79
2023/05/12 00:40:08;;;;;;;4.87;3.97;;;;;;;;;;5283171;28;20099;-79
2023/05/12 00:42:39;;;;;;;4.00;3.60;;;;;;;;;;5282746;28;20825;-79
2023/05/12 00:45:10;;;;;;;4.85;4.43;;;;;;;;;;5282623;28;20016;-79
2023/05/12 00:47:42;;;;;;;4.53;4.03;;;;;;;;;;5283023;28;20044;-80
2023/05/12 00:50:14;;;;;;;4.20;3.80;;;;;;;;;;5283483;28;20263;-79
2023/05/12 00:52:45;;;;;;;4.68;3.47;;;;;;;;;;5281952;28;20339;-80
2023/05/12 00:55:17;;;;;;;4.72;4.20;;;;;;;;;;5283090;28;20016;-80
2023/05/12 00:57:48;;;;;;;4.13;3.83;;;;;;;;;;5281870;28;20528;-80
2023/05/12 01:00:21;;;;;;;4.50;4.03;;;;;;;;;;5280353;28;20455;-81
2023/05/12 01:02:52;;;;;;;5.72;4.03;;;;;;;;;;5280269;28;20456;-80
2023/05/12 01:05:29;;;;;;;4.03;3.53;;;;;;;;;;5280901;28;20100;-80
2023/05/12 01:08:01;;;;;;;4.93;4.07;;;;;;;;;;5280419;28;20453;-80
2023/05/12 01:10:33;;;;;;;4.65;4.30;;;;;;;;;;5280870;28;20448;-79
2023/05/12 01:13:04;;;;;;;4.38;3.97;;;;;;;;;;5279968;28;20017;-80
2023/05/12 01:15:36;;;;;;;4.82;3.95;;;;;;;;;;5281548;28;20032;-80
2023/05/12 01:18:09;;;;;;;3.97;3.58;;;;;;;;;;5282426;28;20037;-80
2023/05/12 01:20:43;;;;;;;5.40;4.05;;;;;;;;;;5281365;28;20023;-80
2023/05/12 01:23:17;;;;;;;4.13;3.70;;;;;;;;;;5282804;28;20025;-80
2023/05/12 01:25:49;;;;;;;4.15;3.75;;;;;;;;;;5282000;28;20030;-80
2023/05/12 01:28:20;;;;;;;4.40;3.78;;;;;;;;;;5281729;28;20095;-80
2023/05/12 01:30:51;;;;;;;4.15;3.75;;;;;;;;;;5281904;28;20023;-80
2023/05/12 01:33:22;;;;;;;4.72;3.97;;;;;;;;;;5282529;28;20027;-80
2023/05/12 01:35:54;;;;;;;4.22;3.83;;;;;;;;;;5280890;28;20024;-79
2023/05/12 01:38:25;;;;;;;5.07;4.10;;;;;;;;;;5282502;28;20523;-79
2023/05/12 01:40:56;;;;;;;5.38;4.43;;;;;;;;;;5281133;28;20394;-79
2023/05/12 01:43:27;;;;;;;4.97;4.22;;;;;;;;;;5282228;28;20027;-79
2023/05/12 01:45:59;;;;;;;5.17;4.23;;;;;;;;;;5281564;28;20023;-80
2023/05/12 01:48:30;;;;;;;4.10;3.70;;;;;;;;;;5281373;28;20761;-79
2023/05/12 01:51:02;;;;;;;4.22;3.65;;;;;;;;;;5281951;28;20375;-79
2023/05/12 01:53:33;;;;;;;5.47;4.30;;;;;;;;;;5281993;28;20040;-79
2023/05/12 01:56:04;;;;;;;4.20;3.33;;;;;;;;;;5280851;28;20043;-79
2023/05/12 01:58:35;;;;;;;5.25;3.97;;;;;;;;;;5281780;28;20055;-78
2023/05/12 02:01:07;;;;;;;4.38;3.97;;;;;;;;;;5281712;28;20012;-78
2023/05/12 02:03:38;;;;;;;3.90;3.45;;;;;;;;;;5280982;28;20482;-77
2023/05/12 02:06:09;;;;;;;4.47;3.95;;;;;;;;;;5281990;28;20026;-77
2023/05/12 02:08:40;;;;;;;4.35;3.28;;;;;;;;;;5281435;28;20020;-77
2023/05/12 02:11:11;;;;;;;3.83;3.43;;;;;;;;;;5281425;28;20028;-76
2023/05/12 02:13:45;;;;;;;3.63;3.33;;;;;;;;;;5281373;28;20280;-77
2023/05/12 02:16:16;;;;;;;4.38;3.15;;;;;;;;;;5280927;28;20024;-77
2023/05/12 02:18:48;;;;;;;4.10;3.03;;;;;;;;;;5281222;28;20368;-76
2023/05/12 02:21:19;;;;;;;4.70;2.80;;;;;;;;;;5281936;28;20040;-77
2023/05/12 02:23:50;;;;;;;3.80;2.35;;;;;;;;;;5280591;28;20279;-75
2023/05/12 02:26:21;;;;;;;2.70;2.45;;;;;;;;;;5282376;28;20029;-75
2023/05/12 02:28:53;;;;;;;2.67;2.47;;;;;;;;;;5285437;28;20012;-75
2023/05/12 02:31:24;;;;;;;2.80;2.47;;;;;;;;;;5285233;28;20111;-76
2023/05/12 02:33:56;;;;;;;3.15;2.63;;;;;;;;;;5285573;28;20451;-75
2023/05/12 02:36:27;;;;;;;2.72;2.30;;;;;;;;;;5286095;28;20149;-75
2023/05/12 02:38:58;;;;;;;3.90;2.90;;;;;;;;;;5284489;28;20096;-75
2023/05/12 02:41:29;;;;;;;3.30;1.95;;;;;;;;;;5285610;28;20258;-75
2023/05/12 02:44:00;;;;;;;2.97;2.13;;;;;;;;;;5284705;28;20430;-76
2023/05/12 02:46:32;;;;;;;3.47;2.65;;;;;;;;;;5285646;28;20025;-75
2023/05/12 02:49:03;;;;;;;2.33;1.98;;;;;;;;;;5285417;28;20025;-75
2023/05/12 02:51:34;;;;;;;2.00;1.73;;;;;;;;;;5284700;28;20031;-74
2023/05/12 02:54:05;;;;;;;3.40;2.03;;;;;;;;;;5285297;28;20013;-74
2023/05/12 02:56:36;;;;;;;2.63;1.80;;;;;;;;;;5284876;28;20067;-74
2023/05/12 02:59:07;;;;;;;1.90;1.30;;;;;;;;;;5284537;28;20263;-74
2023/05/12 03:01:39;;;;;;;2.10;1.50;;;;;;;;;;5284734;28;20020;-73
2023/05/12 03:04:10;;;;;;;2.95;1.15;;;;;;;;;;5285396;28;20263;-73
2023/05/12 03:06:41;;;;;;;1.67;1.25;;;;;;;;;;5283890;28;20025;-73
2023/05/12 03:09:12;;;;;;;2.65;1.23;;;;;;;;;;5285135;28;20258;-75
2023/05/12 03:11:43;;;;;;;1.70;0.82;;;;;;;;;;5284902;28;20278;-75
2023/05/12 03:14:14;;;;;;;1.30;0.80;;;;;;;;;;5284602;28;20017;-75
2023/05/12 03:16:46;;;;;;;1.38;0.90;;;;;;;;;;5284459;28;20291;-75
2023/05/12 03:19:17;;;;;;;1.50;1.17;;;;;;;;;;5284308;28;20270;-73
2023/05/12 03:21:48;;;;;;;2.53;0.80;;;;;;;;;;5284736;28;20386;-74
2023/05/12 03:24:19;;;;;;;1.33;0.65;;;;;;;;;;5285147;28;20263;-73
2023/05/12 03:26:50;;;;;;;2.25;0.60;;;;;;;;;;5283589;28;20031;-73
2023/05/12 03:29:23;;;;;;;1.52;0.75;;;;;;;;;;5284971;28;20383;-72
2023/05/12 03:31:54;;;;;;;1.42;0.70;;;;;;;;;;5284103;28;20463;-72
2023/05/12 03:34:25;;;;;;;1.25;0.60;;;;;;;;;;5284288;28;20030;-71
2023/05/12 03:36:57;;;;;;;1.05;0.77;;;;;;;;;;5284323;28;20043;-72
2023/05/12 03:39:28;;;;;;;2.00;1.10;;;;;;;;;;5283662;28;20263;-72
2023/05/12 03:41:59;;;;;;;2.27;1.27;;;;;;;;;;5283298;28;20021;-72
2023/05/12 03:44:30;;;;;;;1.85;1.10;;;;;;;;;;5284151;28;20395;-71
2023/05/12 03:47:01;;;;;;;2.08;1.30;;;;;;;;;;5284331;28;20056;-71
2023/05/12 03:49:32;;;;;;;2.33;1.65;;;;;;;;;;5283530;28;20255;-72
2023/05/12 03:52:04;;;;;;;2.45;2.00;;;;;;;;;;5284201;28;20130;-72
2023/05/12 03:54:35;;;;;;;2.63;2.00;;;;;;;;;;5283275;28;20266;-71
2023/05/12 03:57:07;;;;;;;3.42;2.67;;;;;;;;;;5283838;28;20399;-72
2023/05/12 03:59:38;;;;;;;3.47;2.30;;;;;;;;;;5283835;28;20008;-72
2023/05/12 04:02:11;;;;;;;2.50;2.23;;;;;;;;;;5283515;28;20024;-71
2023/05/12 04:04:42;;;;;;;3.00;2.70;;;;;;;;;;5283581;28;20337;-72
2023/05/12 04:07:14;;;;;;;4.18;3.28;;;;;;;;;;5284197;28;20099;-72
2023/05/12 04:09:45;;;;;;;3.83;3.40;;;;;;;;;;5282533;28;20016;-72
2023/05/12 04:12:16;;;;;;;5.72;4.05;;;;;;;;;;5283970;28;20271;-72
2023/05/12 04:14:47;;;;;;;3.93;3.30;;;;;;;;;;5283209;28;20021;-72
2023/05/12 04:17:18;;;;;;;4.25;3.33;;;;;;;;;;5282924;28;20294;-73
2023/05/12 04:19:51;;;;;;;5.37;4.80;;;;;;;;;;5282945;28;20273;-72
2023/05/12 04:22:22;;;;;;;5.40;4.75;;;;;;;;;;5283375;28;20338;-72
2023/05/12 04:24:53;;;;;;;6.80;4.93;;;;;;;;;;5282639;28;20096;-72
2023/05/12 04:27:24;;;;;;;8.13;6.33;;;;;;;;;;5283495;28;20477;-72
2023/05/12 04:29:56;;;;;;;6.18;5.43;;;;;;;;;;5281973;28;20681;-72
2023/05/12 04:32:27;;;;;;;9.48;6.15;;;;;;;;;;5283304;28;20625;-72
2023/05/12 04:34:58;;;;;;;10.10;6.80;;;;;;;;;;5283108;28;20571;-72
2023/05/12 04:37:29;;;;;;;8.23;6.43;;;;;;;;;;5282272;28;20066;-73
2023/05/12 04:40:00;;;;;;;7.90;6.68;;;;;;;;;;5283192;28;20371;-72
2023/05/12 04:42:32;;;;;;;7.55;6.75;;;;;;;;;;5283024;28;20021;-73
2023/05/12 04:45:03;;;;;;;7.90;6.37;;;;;;;;;;5282528;28;20020;-73
2023/05/12 04:47:34;;;;;;;10.23;8.02;;;;;;;;;;5283105;28;20265;-73
2023/05/12 04:50:06;;;;;;;9.93;8.60;;;;;;;;;;5282688;28;20020;-72
2023/05/12 04:52:37;;;;;;;10.27;8.32;;;;;;;;;;5282058;28;20295;-72
2023/05/12 04:55:08;;;;;;;11.55;10.02;;;;;;;;;;5283017;28;20008;-72
2023/05/12 04:57:40;;;;;;;12.27;9.32;;;;;;;;;;5281461;28;20056;-72
2023/05/12 05:00:11;;;;;;;12.38;9.43;;;;;;;;;;5283072;28;20267;-72
2023/05/12 05:02:42;;;;;;;11.02;8.40;;;;;;;;;;5282090;28;20417;-72
2023/05/12 05:05:14;;;;;;;12.32;9.52;;;;;;;;;;5282116;28;20099;-73
2023/05/12 05:07:45;;;;;;;13.32;10.88;;;;;;;;;;5282119;28;20048;-72
2023/05/12 05:10:17;;;;;;;11.57;9.53;;;;;;;;;;5282999;28;20019;-73
2023/05/12 05:12:48;;;;;;;15.75;11.38;;;;;;;;;;5281486;28;20262;-73
2023/05/12 05:15:19;;;;;;;13.68;11.63;;;;;;;;;;5282832;28;20021;-72
2023/05/12 05:17:50;;;;;;;13.90;12.00;;;;;;;;;;5281959;28;20036;-73
2023/05/12 05:20:21;;;;;;;16.27;12.40;;;;;;;;;;5281894;28;20074;-72
2023/05/12 05:22:53;;;;;;;16.42;13.75;;;;;;;;;;5281815;28;20756;-73
2023/05/12 05:25:25;;;;;;;19.45;14.88;;;;;;;;;;5282413;28;20741;-73
2023/05/12 05:27:56;;;;;;;18.27;14.80;;;;;;;;;;5281084;28;20040;-74
2023/05/12 05:30:28;;;;;;;19.85;15.23;;;;;;;;;;5282413;28;20482;-73
2023/05/12 05:32:59;;;;;;;20.73;14.77;;;;;;;;;;5280915;28;20031;-73
2023/05/12 05:35:30;;;;;;;21.15;16.10;;;;;;;;;;5282178;28;20038;-74
2023/05/12 05:38:01;;;;;;;19.80;16.33;;;;;;;;;;5281919;28;20111;-73
2023/05/12 05:40:33;;;;;;;20.65;16.10;;;;;;;;;;5281369;28;20021;-73
2023/05/12 05:43:05;;;;;;;23.87;17.83;;;;;;;;;;5281840;28;20379;-73
2023/05/12 05:45:36;;;;;;;24.20;18.20;;;;;;;;;;5281674;28;20263;-74
2023/05/12 05:48:07;;;;;;;20.52;17.10;;;;;;;;;;5281337;28;20487;-73
2023/05/12 05:50:38;;;;;;;25.38;19.40;;;;;;;;;;5281415;28;20024;-74
2023/05/12 05:53:10;;;;;;;23.50;18.48;;;;;;;;;;5282144;28;20016;-74
2023/05/12 05:55:41;;;;;;;23.58;18.02;;;;;;;;;;5280725;28;20024;-74
2023/05/12 05:58:13;;;;;;;24.52;20.00;;;;;;;;;;5281830;28;20135;-76
2023/05/12 06:00:44;;;;;;;24.55;20.35;;;;;;;;;;5281186;28;20294;-75
2023/05/12 06:03:16;;;;;;;25.25;19.42;;;;;;;;;;5276631;28;20013;-76
2023/05/12 06:05:47;;;;;;;26.33;20.58;;;;;;;;;;5281147;28;20084;-75
2023/05/12 06:08:18;;;;;;;25.17;20.02;;;;;;;;;;5280565;28;20057;-75
2023/05/12 06:10:49;;;;;;;24.23;20.67;;;;;;;;;;5281278;28;20063;-77
2023/05/12 06:13:21;;;;;;;25.25;19.42;;;;;;;;;;5281797;28;20115;-76
2023/05/12 06:15:52;;;;;;;26.60;21.63;;;;;;;;;;5280556;28;20032;-75
2023/05/12 06:18:23;;;;;;;24.52;19.60;;;;;;;;;;5281444;28;20353;-75
2023/05/12 06:20:54;;;;;;;26.83;21.63;;;;;;;;;;5280746;28;20052;-75
2023/05/12 06:23:25;;;;;;;26.13;20.75;;;;;;;;;;5279538;28;20274;-75
2023/05/12 06:25:56;;;;;;;25.13;21.03;;;;;;;;;;5280598;28;20281;-75
2023/05/12 06:28:28;;;;;;;26.40;21.15;;;;;;;;;;5280577;28;20267;-74
2023/05/12 06:30:59;;;;;;;26.48;20.67;;;;;;;;;;5279087;28;20039;-74
2023/05/12 06:33:30;;;;;;;29.35;22.45;;;;;;;;;;5280127;28;20048;-75
2023/05/12 06:36:01;;;;;;;28.25;22.67;;;;;;;;;;5280321;28;20019;-74
2023/05/12 06:38:32;;;;;;;25.58;22.33;;;;;;;;;;5281204;28;20028;-75
2023/05/12 06:41:04;;;;;;;28.63;23.83;;;;;;;;;;5281196;28;20487;-75
2023/05/12 06:43:35;;;;;;;25.98;22.92;;;;;;;;;;5280446;28;20614;-75
2023/05/12 06:46:07;;;;;;;23.97;21.37;;;;;;;;;;5281158;28;20017;-73
2023/05/12 06:48:38;;;;;;;24.65;21.17;;;;;;;;;;5280971;28;20313;-73
2023/05/12 06:51:09;;;;;;;26.08;20.88;;;;;;;;;;5280421;28;20020;-74
2023/05/12 06:53:40;;;;;;;23.90;21.05;;;;;;;;;;5280887;28;20289;-74
2023/05/12 06:56:15;;;;;;;22.80;20.50;;;;;;;;;;5281136;28;20028;-75
2023/05/12 06:58:47;;;;;;;21.55;19.35;;;;;;;;;;5279862;28;20563;-75
2023/05/12 07:01:18;;;;;;;20.55;18.60;;;;;;;;;;5280995;28;20091;-75
2023/05/12 07:03:49;;;;;;;19.67;17.63;;;;;;;;;;5280571;28;20024;-75
2023/05/12 07:06:20;;;;;;;19.00;17.20;;;;;;;;;;5280562;28;20283;-74
2023/05/12 07:08:52;;;;;;;19.13;17.42;;;;;;;;;;5280678;28;20286;-74
2023/05/12 07:11:23;;;;;;;19.05;17.35;;;;;;;;;;5280496;28;20026;-74
2023/05/12 07:13:54;;;;;;;17.00;15.30;;;;;;;;;;5282181;28;20622;-74
2023/05/12 07:16:25;;;;;;;17.73;16.17;;;;;;;;;;5282801;28;20735;-75
2023/05/12 07:18:56;;;;;;;17.02;15.52;;;;;;;;;;5281593;28;20069;-74
2023/05/12 07:21:28;;;;;;;17.17;15.77;;;;;;;;;;5283020;28;20104;-74
2023/05/12 07:23:59;;;;;;;15.27;13.98;;;;;;;;;;5282316;28;20320;-76
2023/05/12 07:26:31;;;;;;;13.85;12.55;;;;;;;;;;5281897;28;20025;-75
2023/05/12 07:29:04;;;;;;;14.00;12.75;;;;;;;;;;5283426;28;20023;-75
2023/05/12 07:31:35;;;;;;;12.70;11.70;;;;;;;;;;5284451;28;20025;-75
2023/05/12 07:34:07;;;;;;;12.80;11.65;;;;;;;;;;5283976;28;20475;-75
2023/05/12 07:36:38;;;;;;;12.93;11.93;;;;;;;;;;5284269;28;20031;-75
2023/05/12 07:39:09;;;;;;;11.90;10.93;;;;;;;;;;5284837;28;20062;-75
2023/05/12 07:41:41;;;;;;;10.50;9.45;;;;;;;;;;5283162;28;20302;-75
2023/05/12 07:44:12;;;;;;;8.75;7.95;;;;;;;;;;5284414;28;20471;-75
2023/05/12 07:46:43;;;;;;;8.48;7.78;;;;;;;;;;5283502;28;20012;-75
2023/05/12 07:49:14;;;;;;;8.35;7.45;;;;;;;;;;5284491;28;20025;-74
2023/05/12 07:51:45;;;;;;;5.83;5.30;;;;;;;;;;5283881;28;20021;-75
2023/05/12 07:54:16;;;;;;;6.00;5.13;;;;;;;;;;5283387;28;20323;-75
2023/05/12 07:56:48;;;;;;;6.37;4.47;;;;;;;;;;5283475;28;20815;-75
2023/05/12 07:59:19;;;;;;;4.05;3.67;;;;;;;;;;5284497;28;20735;-75
2023/05/12 08:01:50;;;;;;;5.00;4.47;;;;;;;;;;5283026;28;20020;-74
2023/05/12 08:04:21;;;;;;;5.60;5.20;;;;;;;;;;5284070;28;20267;-75
2023/05/12 08:06:52;;;;;;;4.75;4.40;;;;;;;;;;5283604;28;20467;-75
2023/05/12 08:09:24;;;;;;;4.80;4.40;;;;;;;;;;5283703;28;20016;-76
2023/05/12 08:11:55;;;;;;;4.90;4.00;;;;;;;;;;5280873;28;20275;-75
2023/05/12 08:14:26;;;;;;;3.53;3.22;;;;;;;;;;5284071;28;20052;-75
2023/05/12 08:16:57;;;;;;;4.05;3.65;;;;;;;;;;5282342;28;20073;-75
2023/05/12 08:19:28;;;;;;;6.35;4.40;;;;;;;;;;5283750;28;20379;-75
2023/05/12 08:22:00;;;;;;;4.28;3.75;;;;;;;;;;5281453;28;20032;-75
2023/05/12 08:24:32;;;;;;;4.22;3.92;;;;;;;;;;5281499;28;20050;-77
2023/05/12 08:27:03;;;;;;;3.25;2.95;;;;;;;;;;5281400;28;20023;-76
2023/05/12 08:29:34;;;;;;;3.75;3.42;;;;;;;;;;5282231;28;20091;-75
2023/05/12 08:32:05;;;;;;;3.88;3.58;;;;;;;;;;5283259;28;20074;-74
2023/05/12 08:34:36;;;;;;;3.35;3.05;;;;;;;;;;5283571;28;20051;-74
2023/05/12 08:37:08;;;;;;;3.80;3.25;;;;;;;;;;5282559;28;20036;-75
2023/05/12 08:39:39;;;;;;;3.53;2.72;;;;;;;;;;5283072;28;20069;-76
2023/05/12 08:42:25;;;;;;;3.65;2.80;;;;;;;;;;5283690;28;20034;-79
2023/05/12 08:44:58;;;;;;;2.70;2.50;;;;;;;;;;5282377;28;20043;-76
2023/05/12 08:47:31;;;;;;;3.20;2.08;;;;;;;;;;5283293;28;20387;-75
2023/05/12 08:50:03;;;;;;;4.60;1.85;;;;;;;;;;5282468;28;20016;-76
2023/05/12 08:52:35;;;;;;;2.20;1.30;;;;;;;;;;5282960;28;20067;-75
2023/05/12 08:55:06;;;;;;;2.42;1.35;;;;;;;;;;5282966;28;20013;-75
2023/05/12 08:57:38;;;;;;;2.50;1.95;;;;;;;;;;5281819;28;20552;-75
2023/05/12 09:00:10;;;;;;;2.03;1.10;;;;;;;;;;5283278;28;20487;-75
2023/05/12 09:02:42;;;;;;;2.25;0.90;;;;;;;;;;5282444;28;20020;-76
2023/05/12 09:05:13;;;;;;;1.63;0.85;;;;;;;;;;5282311;28;20016;-76
2023/05/12 09:07:44;;;;;;;1.40;1.00;;;;;;;;;;5282551;28;20021;-75
2023/05/12 09:10:17;;;;;;;3.08;0.90;;;;;;;;;;5282883;28;20015;-75
2023/05/12 09:12:50;;;;;;;1.30;0.82;;;;;;;;;;5281417;28;20103;-76
2023/05/12 09:15:25;;;;;;;2.38;0.90;;;;;;;;;;5282942;28;20031;-75
2023/05/12 09:17:56;;;;;;;4.25;0.90;;;;;;;;;;5281346;28;20036;-75
2023/05/12 09:20:27;;;;;;;1.00;0.70;;;;;;;;;;5283008;28;20028;-75
2023/05/12 09:23:09;;;;;;;1.10;0.70;;;;;;;;;;5282357;28;20266;-75
2023/05/12 09:25:41;;;;;;;1.90;0.60;;;;;;;;;;5281619;28;20506;-76
2023/05/12 09:28:13;;;;;;;3.60;0.80;;;;;;;;;;5282633;28;20024;-76
2023/05/12 09:30:44;;;;;;;1.00;0.60;;;;;;;;;;5282251;28;20017;-75
2023/05/12 09:33:15;;;;;;;2.35;0.70;;;;;;;;;;5281965;28;20012;-75
2023/05/12 09:35:46;;;;;;;1.43;0.60;;;;;;;;;;5281431;28;20013;-75
2023/05/12 09:38:17;;;;;;;2.60;0.70;;;;;;;;;;5281844;28;20368;-76
2023/05/12 09:40:49;;;;;;;3.40;0.70;;;;;;;;;;5281043;28;20024;-75
2023/05/12 09:43:20;;;;;;;1.77;0.50;;;;;;;;;;5282293;28;20848;-76
2023/05/12 09:45:51;;;;;;;1.33;0.50;;;;;;;;;;5281592;28;20070;-75
2023/05/12 09:48:22;;;;;;;1.70;0.90;;;;;;;;;;5281526;28;20617;-75
2023/05/12 09:50:54;;;;;;;2.13;0.70;;;;;;;;;;5281556;28;20460;-75
2023/05/12 09:53:25;;;;;;;1.52;0.52;;;;;;;;;;5281495;28;20464;-75
2023/05/12 09:55:56;;;;;;;1.63;0.70;;;;;;;;;;5281716;28;20788;-75
2023/05/12 09:58:27;;;;;;;1.95;0.68;;;;;;;;;;5282124;28;20087;-76
2023/05/12 10:00:59;;;;;;;1.33;0.50;;;;;;;;;;5280842;28;20082;-76
2023/05/12 10:03:31;;;;;;;1.73;0.50;;;;;;;;;;5281980;28;20020;-76
2023/05/12 10:06:05;;;;;;;2.38;0.60;;;;;;;;;;5281829;28;20283;-76
2023/05/12 10:08:37;;;;;;;2.03;0.50;;;;;;;;;;5280992;28;20021;-76
2023/05/12 10:11:09;;;;;;;2.50;0.50;;;;;;;;;;5281848;28;20024;-76
2023/05/12 10:13:41;;;;;;;2.63;0.40;;;;;;;;;;5281519;28;20017;-76
2023/05/12 10:16:12;;;;;;;2.28;0.60;;;;;;;;;;5281068;28;20029;-75
2023/05/12 10:18:45;;;;;;;4.97;0.50;;;;;;;;;;5281559;28;20482;-76
2023/05/12 10:21:17;;;;;;;2.58;0.52;;;;;;;;;;5281319;28;20043;-76
2023/05/12 10:23:48;;;;;;;1.75;0.85;;;;;;;;;;5281284;28;20020;-76
2023/05/12 10:26:20;;;;;;;1.17;0.40;;;;;;;;;;5281702;28;20123;-75
2023/05/12 10:28:51;;;;;;;2.05;0.50;;;;;;;;;;5280279;28;20103;-75
2023/05/12 10:31:23;;;;;;;0.90;0.40;;;;;;;;;;5282177;28;20024;-76
2023/05/12 10:33:55;;;;;;;1.65;0.40;;;;;;;;;;5280968;28;20367;-75
2023/05/12 10:36:26;;;;;;;2.58;0.50;;;;;;;;;;5280742;28;20016;-75
2023/05/12 10:39:05;;;;;;;2.20;0.60;;;;;;;;;;5280927;28;20032;-75
2023/05/12 10:41:36;;;;;;;2.55;0.50;;;;;;;;;;5281599;28;20403;-75
2023/05/12 10:44:09;;;;;;;1.03;0.50;;;;;;;;;;5280825;28;20017;-77
2023/05/12 10:46:40;;;;;;;1.15;0.55;;;;;;;;;;5281211;28;20257;-75
2023/05/12 10:49:14;;;;;;;1.85;0.40;;;;;;;;;;5284958;28;20021;-74
2023/05/12 10:51:47;;;;;;;2.00;0.50;;;;;;;;;;5286920;28;20691;-74
2023/05/12 10:54:19;;;;;;;1.13;0.50;;;;;;;;;;5282812;28;20108;-73
2023/05/12 10:56:51;;;;;;;3.13;0.47;;;;;;;;;;5283933;28;20047;-75
2023/05/12 10:59:23;;;;;;;1.00;0.40;;;;;;;;;;5285730;28;20020;-74
2023/05/12 11:02:02;;;;;;;3.05;0.47;;;;;;;;;;5284620;28;20028;-74
2023/05/12 11:04:45;;;;;;;2.90;0.40;;;;;;;;;;5284609;28;20367;-74
2023/05/12 11:07:19;;;;;;;2.15;0.40;;;;;;;;;;5285239;28;20060;-75
2023/05/12 11:09:50;;;;;;;1.27;0.55;;;;;;;;;;5284549;28;20058;-75
2023/05/12 11:12:22;;;;;;;2.00;0.50;;;;;;;;;;5284406;28;20099;-74
2023/05/12 11:14:53;;;;;;;2.47;0.60;;;;;;;;;;5284820;28;20273;-74
2023/05/12 11:17:24;;;;;;;1.13;0.50;;;;;;;;;;5284465;28;20111;-74
2023/05/12 11:19:55;;;;;;;2.38;0.50;;;;;;;;;;5284558;28;20308;-74
2023/05/12 11:22:27;;;;;;;1.00;0.52;;;;;;;;;;5285079;28;20032;-74
2023/05/12 11:25:07;;;;;;;2.30;0.50;;;;;;;;;;5283664;28;20021;-75
2023/05/12 11:27:44;;;;;;;2.20;0.63;;;;;;;;;;5284577;28;20042;-73
2023/05/12 11:30:15;;;;;;;5.07;1.10;;;;;;;;;;5285120;28;20375;-75
2023/05/12 11:32:46;;;;;;;1.83;0.88;;;;;;;;;;5283467;28;20020;-75
2023/05/12 11:35:18;;;;;;;5.82;1.35;;;;;;;;;;5284889;28;20013;-74
2023/05/12 11:37:49;;;;;;;2.95;0.80;;;;;;;;;;5283947;28;20067;-75
2023/05/12 11:40:21;;;;;;;3.13;0.90;;;;;;;;;;5284153;28;20058;-75
2023/05/12 11:42:54;;;;;;;3.85;1.23;;;;;;;;;;5283410;28;20274;-74
2023/05/12 11:45:27;;;;;;;3.42;0.90;;;;;;;;;;5282322;28;20024;-75
2023/05/12 11:48:10;;;;;;;1.27;0.82;;;;;;;;;;5280896;28;20028;-75
2023/05/12 11:50:42;;;;;;;1.65;0.70;;;;;;;;;;5281766;28;20661;-74
2023/05/12 11:53:15;;;;;;;1.25;0.68;;;;;;;;;;5281450;28;20013;-74
2023/05/12 11:55:50;;;;;;;2.00;0.90;;;;;;;;;;5281473;28;20028;-75
2023/05/12 11:58:25;;;;;;;1.85;0.75;;;;;;;;;;5282345;28;20048;-75
2023/05/12 12:01:07;;;;;;;3.25;1.00;;;;;;;;;;5282035;28;20024;-75
2023/05/12 12:03:47;;;;;;;3.72;0.85;;;;;;;;;;5283560;28;20539;-75
2023/05/12 12:06:19;;;;;;;1.73;0.70;;;;;;;;;;5284158;28;20039;-75
2023/05/12 12:08:54;;;;;;;2.65;0.80;;;;;;;;;;5282634;28;20024;-74
2023/05/12 12:11:27;;;;;;;1.83;0.50;;;;;;;;;;5284216;28;20024;-74
2023/05/12 12:13:59;;;;;;;1.48;0.60;;;;;;;;;;5282554;28;20037;-74
2023/05/12 12:16:31;;;;;;;1.60;0.70;;;;;;;;;;5283624;28;20478;-77
2023/05/12 12:19:02;;;;;;;2.38;0.80;;;;;;;;;;5283497;28;20115;-77
2023/05/12 12:21:33;;;;;;;3.10;0.80;;;;;;;;;;5283045;28;20013;-77
2023/05/12 12:24:05;;;;;;;2.30;0.70;;;;;;;;;;5283685;28;20020;-76
2023/05/12 12:26:37;;;;;;;1.33;0.70;;;;;;;;;;5283270;28;20320;-75
2023/05/12 12:29:08;;;;;;;3.28;0.73;;;;;;;;;;5270869;28;20012;-74
2023/05/12 12:31:40;;;;;;;2.80;0.80;;;;;;;;;;5265238;28;20494;-74
2023/05/12 12:34:11;;;;;;;1.45;0.60;;;;;;;;;;5260863;28;20040;-76
2023/05/12 12:36:42;;;;;;;2.38;0.60;;;;;;;;;;5260705;28;20425;-76
2023/05/12 12:39:14;;;;;;;1.45;0.68;;;;;;;;;;5261787;28;20021;-75
2023/05/12 12:41:46;;;;;;;2.17;0.60;;;;;;;;;;5260292;28;20020;-75
2023/05/12 12:44:18;;;;;;;2.45;0.80;;;;;;;;;;5261314;28;20070;-75
2023/05/12 12:46:49;;;;;;;1.55;0.50;;;;;;;;;;5261289;28;20025;-75
2023/05/12 12:49:20;;;;;;;1.43;0.60;;;;;;;;;;5261025;28;20310;-75
2023/05/12 12:51:52;;;;;;;1.48;0.70;;;;;;;;;;5260817;28;20256;-75
2023/05/12 12:54:25;;;;;;;3.77;0.60;;;;;;;;;;5262960;28;20480;-74
2023/05/12 12:56:57;;;;;;;2.22;0.70;;;;;;;;;;5259349;28;20912;-75
2023/05/12 12:59:28;;;;;;;1.70;0.55;;;;;;;;;;5261781;28;20013;-74
2023/05/12 13:02:00;;;;;;;1.67;0.80;;;;;;;;;;5267453;28;20112;-74
2023/05/12 13:04:31;;;;;;;2.05;0.70;;;;;;;;;;5275568;28;20283;-74
2023/05/12 13:07:02;;;;;;;2.23;0.60;;;;;;;;;;5281917;28;20031;-74
2023/05/12 13:09:33;;;;;;;3.05;0.70;;;;;;;;;;5282944;28;20334;-74
2023/05/12 13:12:05;;;;;;;2.87;0.70;;;;;;;;;;5279905;28;20023;-74
2023/05/12 13:14:36;;;;;;;2.95;0.60;;;;;;;;;;5280640;28;20816;-74
2023/05/12 13:17:07;;;;;;;1.15;0.50;;;;;;;;;;5281252;28;20016;-74
2023/05/12 13:19:38;;;;;;;3.87;0.70;;;;;;;;;;5282089;28;20020;-74
2023/05/12 13:22:10;;;;;;;1.35;0.70;;;;;;;;;;5282795;28;20262;-74
2023/05/12 13:24:41;;;;;;;1.63;0.60;;;;;;;;;;5281403;28;20025;-73
2023/05/12 13:27:12;;;;;;;2.70;0.70;;;;;;;;;;5282336;28;20366;-74
2023/05/12 13:29:46;;;;;;;4.10;0.83;;;;;;;;;;5281923;28;20297;-74
2023/05/12 13:32:17;;;;;;;1.50;0.60;;;;;;;;;;5281898;28;20267;-74
2023/05/12 13:34:48;;;;;;;1.63;0.60;;;;;;;;;;5282177;28;20397;-74
2023/05/12 13:37:20;;;;;;;1.55;0.75;;;;;;;;;;5282069;28;20036;-74
2023/05/12 13:39:51;;;;;;;2.33;0.80;;;;;;;;;;5281029;28;20087;-74
2023/05/12 13:42:22;;;;;;;1.92;0.60;;;;;;;;;;5282128;28;20032;-74
2023/05/12 13:44:54;;;;;;;1.58;0.60;;;;;;;;;;5281748;28;20013;-74
2023/05/12 13:47:25;;;;;;;1.70;0.60;;;;;;;;;;5281536;28;20036;-74
2023/05/12 13:49:57;;;;;;;1.30;0.70;;;;;;;;;;5281386;28;20263;-74
2023/05/12 13:52:28;;;;;;;2.17;0.70;;;;;;;;;;5281120;28;20020;-74
2023/05/12 13:54:59;;;;;;;2.57;0.80;;;;;;;;;;5281515;28;20032;-74
2023/05/12 13:57:30;;;;;;;2.33;0.85;;;;;;;;;;5281617;28;20393;-74
2023/05/12 14:00:02;;;;;;;1.58;0.82;;;;;;;;;;5280775;28;20020;-74
2023/05/12 14:02:33;;;;;;;1.23;0.70;;;;;;;;;;5281954;28;20486;-74
2023/05/12 14:05:05;;;;;;;1.73;0.95;;;;;;;;;;5281699;28;20013;-74
2023/05/12 14:07:36;;;;;;;7.63;1.17;;;;;;;;;;5280778;28;20085;-74
2023/05/12 14:10:07;;;;;;;1.50;0.80;;;;;;;;;;5281496;28;20009;-74
2023/05/12 14:12:41;;;;;;;2.90;1.13;;;;;;;;;;5281350;28;20746;-74
2023/05/12 14:15:12;;;;;;;3.20;0.80;;;;;;;;;;5281110;28;20379;-74
2023/05/12 14:17:43;;;;;;;1.80;1.00;;;;;;;;;;5281031;28;20055;-74
2023/05/12 14:20:15;;;;;;;2.90;1.13;;;;;;;;;;5281258;28;20515;-73
2023/05/12 14:22:46;;;;;;;1.83;1.20;;;;;;;;;;5280665;28;20274;-74
2023/05/12 14:25:17;;;;;;;1.90;1.00;;;;;;;;;;5281921;28;20459;-75
2023/05/12 14:27:48;;;;;;;1.83;0.88;;;;;;;;;;5280543;28;20024;-74
2023/05/12 14:30:20;;;;;;;1.58;0.70;;;;;;;;;;5281747;28;20020;-74
2023/05/12 14:32:52;;;;;;;3.45;0.75;;;;;;;;;;5281615;28;20025;-74
2023/05/12 14:35:26;;;;;;;1.63;0.80;;;;;;;;;;5281263;28;20028;-74
2023/05/12 14:37:57;;;;;;;2.13;0.85;;;;;;;;;;5281257;28;20086;-74
2023/05/12 14:40:28;;;;;;;3.17;0.70;;;;;;;;;;5281616;28;20016;-74
2023/05/12 14:42:59;;;;;;;1.75;0.63;;;;;;;;;;5280303;28;20271;-74
2023/05/12 14:45:31;;;;;;;1.17;0.50;;;;;;;;;;5281254;28;20027;-74
2023/05/12 14:48:02;;;;;;;2.20;0.60;;;;;;;;;;5281531;28;20680;-74
2023/05/12 14:50:33;;;;;;;2.92;1.05;;;;;;;;;;5280425;28;20013;-74
2023/05/12 14:53:04;;;;;;;1.90;0.90;;;;;;;;;;5281169;28;20070;-73
2023/05/12 14:55:36;;;;;;;1.40;0.73;;;;;;;;;;5280462;28;20702;-74
2023/05/12 14:58:07;;;;;;;1.52;0.70;;;;;;;;;;5280994;28;20128;-74
2023/05/12 15:00:38;;;;;;;2.30;0.70;;;;;;;;;;5281030;28;20016;-74
2023/05/12 15:03:10;;;;;;;2.50;0.70;;;;;;;;;;5280715;28;20267;-73
2023/05/12 15:05:41;;;;;;;3.65;0.60;;;;;;;;;;5280853;28;20075;-73